createdAt,value
2022-11-13T00:00:11.112Z,6.40
2022-11-13T00:01:13.011Z,6.46
2022-11-13T00:02:15.513Z,6.50
2022-11-13T00:03:17.304Z,6.48
2022-11-13T00:04:18.953Z,6.42
2022-11-13T00:05:20.925Z,6.38
2022-11-13T00:06:22.820Z,6.35
2022-11-13T00:07:24.489Z,6.33
2022-11-13T00:08:27.694Z,6.33
2022-11-13T00:09:31.216Z,6.27
2022-11-13T00:10:32.821Z,6.24
2022-11-13T00:11:34.750Z,6.08
2022-11-13T00:12:37.955Z,6.27
2022-11-13T00:13:39.904Z,6.29
2022-11-13T00:14:42.857Z,6.39
2022-11-13T00:15:44.525Z,6.38
2022-11-13T00:16:46.366Z,6.40
2022-11-13T00:17:48.113Z,6.42
2022-11-13T00:18:50.014Z,6.44
2022-11-13T00:19:53.976Z,6.37
2022-11-13T00:21:04.403Z,6.40
2022-11-13T00:22:06.780Z,6.41
2022-11-13T00:23:11.072Z,6.36
2022-11-13T00:24:13.527Z,6.52
2022-11-13T00:25:15.959Z,6.45
2022-11-13T00:26:23.999Z,6.57
2022-11-13T00:27:25.764Z,6.59
2022-11-13T00:28:27.551Z,6.50
2022-11-13T00:29:29.749Z,6.62
2022-11-13T00:30:32.070Z,6.63
2022-11-13T00:31:35.100Z,6.63
2022-11-13T00:32:42.590Z,6.45
2022-11-13T00:34:09.096Z,6.55
2022-11-13T00:35:08.620Z,6.67
2022-11-13T00:36:30.434Z,6.70
2022-11-13T00:37:32.325Z,6.72
2022-11-13T00:38:35.547Z,6.65
2022-11-13T00:39:37.206Z,6.69
2022-11-13T00:40:40.959Z,6.68
2022-11-13T00:41:43.767Z,6.52
2022-11-13T00:42:46.468Z,6.57
2022-11-13T00:43:50.276Z,6.52
2022-11-13T00:44:52.011Z,6.62
2022-11-13T00:45:54.218Z,6.57
2022-11-13T00:46:56.881Z,6.49
2022-11-13T00:47:58.447Z,6.37
2022-11-13T00:49:01.937Z,6.41
2022-11-13T00:50:05.764Z,6.27
2022-11-13T00:51:07.472Z,6.41
2022-11-13T00:52:09.469Z,6.38
2022-11-13T00:53:16.831Z,6.25
2022-11-13T00:54:22.309Z,6.38
2022-11-13T00:55:24.928Z,6.34
2022-11-13T00:56:27.294Z,6.44
2022-11-13T00:57:29.021Z,6.40
2022-11-13T00:58:30.970Z,6.49
2022-11-13T00:59:32.651Z,6.51
2022-11-13T01:00:34.653Z,6.54
2022-11-13T01:01:36.626Z,6.57
2022-11-13T01:02:38.885Z,6.50
2022-11-13T01:03:40.807Z,6.50
2022-11-13T01:04:43.081Z,6.60
2022-11-13T01:05:46.004Z,6.64
2022-11-13T01:06:47.664Z,6.64
2022-11-13T01:07:50.529Z,6.43
2022-11-13T01:08:56.421Z,6.52
2022-11-13T01:10:00.233Z,6.53
2022-11-13T01:11:08.781Z,6.54
2022-11-13T01:12:10.388Z,6.53
2022-11-13T01:13:12.605Z,6.53
2022-11-13T01:14:14.362Z,6.50
2022-11-13T01:15:17.081Z,6.55
2022-11-13T01:16:23.509Z,6.49
2022-11-13T01:17:25.297Z,6.54
2022-11-13T01:18:27.345Z,6.53
2022-11-13T01:19:29.790Z,6.50
2022-11-13T01:20:33.360Z,6.53
2022-11-13T01:21:35.221Z,6.51
2022-11-13T01:22:37.927Z,6.53
2022-11-13T01:23:40.665Z,6.57
2022-11-13T01:24:43.035Z,6.46
2022-11-13T01:25:46.870Z,6.52
2022-11-13T01:26:49.201Z,6.57
2022-11-13T01:27:51.271Z,6.52
2022-11-13T01:28:54.124Z,6.62
2022-11-13T01:29:56.030Z,6.57
2022-11-13T01:30:57.730Z,6.61
2022-11-13T01:31:59.710Z,6.61
2022-11-13T01:33:01.392Z,6.53
2022-11-13T01:34:03.308Z,6.51
2022-11-13T01:35:05.351Z,6.44
2022-11-13T01:36:11.267Z,6.37
2022-11-13T01:37:13.056Z,6.60
2022-11-13T01:38:16.454Z,6.55
2022-11-13T01:39:17.972Z,6.44
2022-11-13T01:40:19.738Z,6.59
2022-11-13T01:41:28.582Z,6.44
2022-11-13T01:42:32.584Z,6.58
2022-11-13T01:43:37.606Z,6.34
2022-11-13T01:44:58.272Z,6.61
2022-11-13T01:46:19.398Z,6.62
2022-11-13T01:47:23.568Z,6.60
2022-11-13T01:48:37.653Z,6.65
2022-11-13T01:49:43.206Z,6.58
2022-11-13T01:50:45.855Z,6.61
2022-11-13T01:51:58.782Z,6.56
2022-11-13T01:53:00.739Z,6.37
2022-11-13T01:54:12.839Z,6.44
2022-11-13T01:55:19.590Z,6.42
2022-11-13T01:56:22.703Z,6.30
2022-11-13T01:57:26.404Z,6.12
2022-11-13T01:58:33.068Z,6.32
2022-11-13T01:59:40.420Z,6.22
2022-11-13T02:00:42.254Z,6.09
2022-11-13T02:01:45.550Z,6.20
2022-11-13T02:02:47.487Z,6.18
2022-11-13T02:03:49.793Z,6.21
2022-11-13T02:04:52.594Z,6.22
2022-11-13T02:05:55.167Z,6.17
2022-11-13T02:07:01.420Z,6.20
2022-11-13T02:08:03.723Z,6.13
2022-11-13T02:09:07.901Z,6.29
2022-11-13T02:10:10.204Z,6.28
2022-11-13T02:11:13.056Z,6.35
2022-11-13T02:12:25.008Z,6.31
2022-11-13T02:13:26.669Z,6.30
2022-11-13T02:14:31.041Z,6.40
2022-11-13T02:15:35.200Z,6.35
2022-11-13T02:16:40.030Z,6.28
2022-11-13T02:17:52.114Z,6.26
2022-11-13T02:18:54.160Z,6.18
2022-11-13T02:20:01.031Z,6.24
2022-11-13T02:21:20.739Z,6.26
2022-11-13T02:22:51.894Z,6.26
2022-11-13T02:24:02.246Z,6.21
2022-11-13T02:25:05.768Z,6.10
2022-11-13T02:26:09.981Z,6.15
2022-11-13T02:27:27.449Z,6.17
2022-11-13T02:28:29.424Z,6.20
2022-11-13T02:29:32.195Z,6.09
2022-11-13T02:30:36.148Z,6.10
2022-11-13T02:31:37.804Z,6.20
2022-11-13T02:32:46.598Z,6.25
2022-11-13T02:33:48.599Z,6.32
2022-11-13T02:34:50.151Z,6.30
2022-11-13T02:35:52.577Z,6.27
2022-11-13T02:36:54.405Z,6.33
2022-11-13T02:37:58.660Z,6.31
2022-11-13T02:39:04.356Z,6.28
2022-11-13T02:40:07.109Z,6.28
2022-11-13T02:41:08.791Z,6.22
2022-11-13T02:42:10.750Z,6.17
2022-11-13T02:43:12.675Z,6.16
2022-11-13T02:44:14.488Z,6.01
2022-11-13T02:45:17.194Z,6.25
2022-11-13T02:46:18.737Z,6.13
2022-11-13T02:47:20.932Z,6.00
2022-11-13T02:48:23.710Z,6.20
2022-11-13T02:49:25.683Z,6.16
2022-11-13T02:50:29.089Z,6.09
2022-11-13T02:51:31.910Z,6.13
2022-11-13T02:52:33.578Z,6.08
2022-11-13T02:53:36.671Z,6.02
2022-11-13T02:54:39.554Z,6.00
2022-11-13T02:55:42.019Z,5.90
2022-11-13T02:56:48.928Z,5.76
2022-11-13T02:57:50.749Z,5.90
2022-11-13T02:58:52.734Z,5.96
2022-11-13T02:59:55.413Z,5.97
2022-11-13T03:00:57.291Z,5.94
2022-11-13T03:01:59.307Z,5.91
2022-11-13T03:03:00.974Z,5.91
2022-11-13T03:04:03.636Z,5.92
2022-11-13T03:05:14.084Z,5.88
2022-11-13T03:06:16.024Z,5.84
2022-11-13T03:07:17.578Z,5.88
2022-11-13T03:08:19.900Z,5.75
2022-11-13T03:09:23.308Z,5.83
2022-11-13T03:10:24.795Z,5.80
2022-11-13T03:11:26.633Z,5.64
2022-11-13T03:12:29.434Z,5.84
2022-11-13T03:13:30.948Z,5.77
2022-11-13T03:14:32.599Z,5.79
2022-11-13T03:15:34.866Z,5.86
2022-11-13T03:16:37.692Z,5.83
2022-11-13T03:17:39.550Z,5.88
2022-11-13T03:18:41.481Z,5.68
2022-11-13T03:19:43.078Z,5.85
2022-11-13T03:20:44.938Z,5.85
2022-11-13T03:21:46.540Z,5.86
2022-11-13T03:22:48.468Z,5.83
2022-11-13T03:23:51.365Z,5.92
2022-11-13T03:24:54.536Z,5.96
2022-11-13T03:25:56.335Z,5.75
2022-11-13T03:26:58.593Z,6.00
2022-11-13T03:28:00.930Z,5.95
2022-11-13T03:29:03.764Z,6.04
2022-11-13T03:30:08.610Z,5.98
2022-11-13T03:31:10.407Z,5.88
2022-11-13T03:32:13.117Z,5.81
2022-11-13T03:33:16.719Z,5.87
2022-11-13T03:34:19.615Z,5.89
2022-11-13T03:35:25.851Z,6.02
2022-11-13T03:36:29.216Z,6.07
2022-11-13T03:37:32.242Z,6.09
2022-11-13T03:38:35.038Z,6.04
2022-11-13T03:39:37.568Z,5.95
2022-11-13T03:40:39.162Z,5.96
2022-11-13T03:41:41.035Z,5.86
2022-11-13T03:42:42.818Z,6.08
2022-11-13T03:43:44.811Z,6.07
2022-11-13T03:44:46.405Z,6.13
2022-11-13T03:45:48.426Z,6.07
2022-11-13T03:46:50.080Z,6.17
2022-11-13T03:47:51.873Z,6.13
2022-11-13T03:48:57.105Z,6.20
2022-11-13T03:49:58.850Z,6.21
2022-11-13T03:51:01.211Z,6.22
2022-11-13T03:52:03.533Z,6.22
2022-11-13T03:53:06.610Z,6.21
2022-11-13T03:54:08.332Z,6.16
2022-11-13T03:55:11.690Z,6.19
2022-11-13T03:56:15.195Z,6.16
2022-11-13T03:57:16.913Z,6.27
2022-11-13T03:58:18.984Z,6.26
2022-11-13T03:59:20.820Z,6.32
2022-11-13T04:00:22.457Z,6.28
2022-11-13T04:01:24.575Z,6.21
2022-11-13T04:02:26.343Z,6.31
2022-11-13T04:03:28.054Z,6.24
2022-11-13T04:04:29.830Z,6.32
2022-11-13T04:05:32.804Z,6.32
2022-11-13T04:06:35.980Z,6.32
2022-11-13T04:07:37.756Z,6.33
2022-11-13T04:08:39.599Z,6.27
2022-11-13T04:09:42.015Z,6.20
2022-11-13T04:10:45.917Z,6.31
2022-11-13T04:11:47.722Z,6.25
2022-11-13T04:12:50.088Z,6.21
2022-11-13T04:13:51.655Z,6.07
2022-11-13T04:14:53.495Z,6.23
2022-11-13T04:15:57.000Z,6.22
2022-11-13T04:16:59.133Z,6.18
2022-11-13T04:18:01.066Z,6.22
2022-11-13T04:19:02.822Z,6.05
2022-11-13T04:20:05.200Z,6.22
2022-11-13T04:21:09.252Z,6.24
2022-11-13T04:22:10.974Z,6.11
2022-11-13T04:23:15.905Z,6.17
2022-11-13T04:24:17.872Z,5.96
2022-11-13T04:25:19.712Z,5.95
2022-11-13T04:26:21.400Z,5.93
2022-11-13T04:27:22.980Z,5.79
2022-11-13T04:28:24.958Z,5.92
2022-11-13T04:29:26.672Z,5.85
2022-11-13T04:30:29.697Z,5.85
2022-11-13T04:31:31.495Z,5.89
2022-11-13T04:32:34.634Z,6.02
2022-11-13T04:33:36.252Z,5.97
2022-11-13T04:34:37.886Z,5.91
2022-11-13T04:35:41.779Z,5.83
2022-11-13T04:36:43.455Z,5.86
2022-11-13T04:37:45.087Z,5.83
2022-11-13T04:38:47.868Z,5.80
2022-11-13T04:39:49.943Z,5.76
2022-11-13T04:41:13.024Z,5.80
2022-11-13T04:42:33.206Z,5.47
2022-11-13T04:43:34.866Z,5.86
2022-11-13T04:44:36.911Z,5.83
2022-11-13T04:45:38.523Z,5.94
2022-11-13T04:46:40.504Z,5.95
2022-11-13T04:47:42.219Z,6.02
2022-11-13T04:48:43.731Z,5.98
2022-11-13T04:49:48.021Z,6.06
2022-11-13T04:50:50.131Z,6.06
2022-11-13T04:51:52.724Z,5.98
2022-11-13T04:52:54.379Z,6.07
2022-11-13T04:53:56.083Z,6.06
2022-11-13T04:54:58.453Z,6.06
2022-11-13T04:56:00.479Z,5.96
2022-11-13T04:57:02.121Z,5.87
2022-11-13T04:58:03.696Z,5.81
2022-11-13T04:59:05.561Z,5.77
2022-11-13T05:00:08.232Z,5.80
2022-11-13T05:01:10.386Z,5.82
2022-11-13T05:02:12.120Z,5.68
2022-11-13T05:03:13.743Z,5.71
2022-11-13T05:04:16.428Z,5.72
2022-11-13T05:05:18.456Z,5.70
2022-11-13T05:06:23.530Z,5.67
2022-11-13T05:07:29.592Z,5.64
2022-11-13T05:08:32.681Z,5.45
2022-11-13T05:09:36.164Z,5.61
2022-11-13T05:10:38.106Z,5.64
2022-11-13T05:11:41.484Z,5.62
2022-11-13T05:12:43.758Z,5.57
2022-11-13T05:13:46.379Z,5.71
2022-11-13T05:14:48.788Z,5.70
2022-11-13T05:15:51.761Z,5.66
2022-11-13T05:16:53.717Z,5.77
2022-11-13T05:17:55.885Z,5.72
2022-11-13T05:18:58.324Z,5.60
2022-11-13T05:19:59.863Z,5.52
2022-11-13T05:21:02.051Z,5.59
2022-11-13T05:22:04.092Z,5.58
2022-11-13T05:23:07.495Z,5.45
2022-11-13T05:24:13.456Z,5.57
2022-11-13T05:25:18.136Z,5.57
2022-11-13T05:26:19.864Z,5.47
2022-11-13T05:27:21.447Z,5.63
2022-11-13T05:28:23.595Z,5.66
2022-11-13T05:29:27.877Z,5.72
2022-11-13T05:30:29.640Z,5.58
2022-11-13T05:31:32.224Z,5.71
2022-11-13T05:32:34.822Z,5.75
2022-11-13T05:33:40.390Z,5.77
2022-11-13T05:34:44.483Z,5.79
2022-11-13T05:35:47.503Z,5.85
2022-11-13T05:36:49.810Z,5.86
2022-11-13T05:37:51.997Z,5.80
2022-11-13T05:38:53.888Z,5.73
2022-11-13T05:39:56.508Z,5.77
2022-11-13T05:41:15.545Z,5.68
2022-11-13T05:42:17.247Z,5.72
2022-11-13T05:43:21.688Z,5.49
2022-11-13T05:44:23.622Z,5.75
2022-11-13T05:45:25.701Z,5.66
2022-11-13T05:46:29.563Z,5.63
2022-11-13T05:47:33.242Z,5.51
2022-11-13T05:48:36.126Z,5.64
2022-11-13T05:49:41.436Z,5.64
2022-11-13T05:50:44.223Z,5.61
2022-11-13T05:51:45.901Z,5.62
2022-11-13T05:52:49.798Z,5.62
2022-11-13T05:53:52.770Z,5.46
2022-11-13T05:54:55.259Z,5.43
2022-11-13T05:56:01.595Z,5.55
2022-11-13T05:57:04.912Z,5.52
2022-11-13T05:58:06.970Z,5.27
2022-11-13T05:59:09.597Z,5.57
2022-11-13T06:00:14.175Z,5.59
2022-11-13T06:01:20.839Z,5.60
2022-11-13T06:02:23.104Z,5.46
2022-11-13T06:03:26.019Z,5.61
2022-11-13T06:04:28.956Z,5.43
2022-11-13T06:05:30.679Z,5.56
2022-11-13T06:06:33.293Z,5.58
2022-11-13T06:07:35.223Z,5.55
2022-11-13T06:08:37.904Z,5.57
2022-11-13T06:09:40.976Z,5.56
2022-11-13T06:10:43.100Z,5.46
2022-11-13T06:11:45.858Z,5.48
2022-11-13T06:12:48.321Z,5.46
2022-11-13T06:13:51.748Z,5.44
2022-11-13T06:14:54.622Z,5.28
2022-11-13T06:16:05.849Z,5.35
2022-11-13T06:17:08.847Z,5.22
2022-11-13T06:18:14.698Z,5.09
2022-11-13T06:19:16.361Z,5.11
2022-11-13T06:20:18.129Z,5.10
2022-11-13T06:21:22.450Z,5.26
2022-11-13T06:22:25.797Z,5.23
2022-11-13T06:23:29.394Z,4.94
2022-11-13T06:24:31.306Z,5.23
2022-11-13T06:25:33.954Z,5.11
2022-11-13T06:26:37.657Z,5.25
2022-11-13T06:27:39.562Z,5.10
2022-11-13T06:28:42.227Z,5.20
2022-11-13T06:29:47.021Z,5.26
2022-11-13T06:30:48.921Z,5.31
2022-11-13T06:31:51.049Z,5.25
2022-11-13T06:32:56.610Z,5.29
2022-11-13T06:33:59.674Z,5.28
2022-11-13T06:35:01.715Z,5.19
2022-11-13T06:36:09.299Z,5.26
2022-11-13T06:37:10.918Z,5.27
2022-11-13T06:38:12.926Z,5.24
2022-11-13T06:39:14.779Z,5.29
2022-11-13T06:40:16.561Z,5.35
2022-11-13T06:41:21.714Z,5.34
2022-11-13T06:42:23.630Z,5.40
2022-11-13T06:43:25.528Z,5.33
2022-11-13T06:44:28.139Z,5.37
2022-11-13T06:45:33.142Z,5.34
2022-11-13T06:46:35.292Z,5.26
2022-11-13T06:47:38.113Z,5.34
2022-11-13T06:48:40.184Z,5.40
2022-11-13T06:49:42.088Z,5.41
2022-11-13T06:50:48.312Z,5.26
2022-11-13T06:51:50.624Z,5.45
2022-11-13T06:52:52.692Z,5.41
2022-11-13T06:53:54.544Z,5.54
2022-11-13T06:54:56.416Z,5.42
2022-11-13T06:55:59.150Z,5.55
2022-11-13T06:57:01.029Z,5.55
2022-11-13T06:58:03.010Z,5.54
2022-11-13T06:59:08.346Z,5.45
2022-11-13T07:00:11.353Z,5.31
2022-11-13T07:01:16.038Z,5.34
2022-11-13T07:02:17.709Z,5.23
2022-11-13T07:03:26.811Z,5.39
2022-11-13T07:04:29.565Z,5.39
2022-11-13T07:05:41.940Z,5.25
2022-11-13T07:06:46.521Z,5.25
2022-11-13T07:07:48.198Z,5.33
2022-11-13T07:08:50.680Z,5.25
2022-11-13T07:09:54.053Z,5.38
2022-11-13T07:10:57.072Z,5.41
2022-11-13T07:11:59.472Z,5.44
2022-11-13T07:13:01.320Z,5.38
2022-11-13T07:14:05.719Z,5.44
2022-11-13T07:15:07.571Z,5.43
2022-11-13T07:16:19.094Z,5.38
2022-11-13T07:17:23.299Z,5.41
2022-11-13T07:18:29.329Z,5.39
2022-11-13T07:19:33.256Z,5.47
2022-11-13T07:20:35.783Z,5.52
2022-11-13T07:21:37.692Z,5.55
2022-11-13T07:22:39.856Z,5.51
2022-11-13T07:23:44.893Z,5.58
2022-11-13T07:24:48.384Z,5.24
2022-11-13T07:25:55.643Z,5.34
2022-11-13T07:26:57.817Z,5.28
2022-11-13T07:27:59.819Z,5.21
2022-11-13T07:29:02.992Z,5.14
2022-11-13T07:30:06.319Z,5.10
2022-11-13T07:31:12.599Z,5.16
2022-11-13T07:32:14.718Z,5.19
2022-11-13T07:33:17.228Z,5.19
2022-11-13T07:34:22.749Z,5.22
2022-11-13T07:35:24.507Z,5.09
2022-11-13T07:36:26.234Z,5.15
2022-11-13T07:37:28.724Z,5.20
2022-11-13T07:38:32.531Z,5.20
2022-11-13T07:39:36.097Z,5.22
2022-11-13T07:40:38.582Z,5.28
2022-11-13T07:41:44.931Z,5.31
2022-11-13T07:42:47.479Z,5.27
2022-11-13T07:43:51.764Z,5.39
2022-11-13T07:44:55.709Z,5.30
2022-11-13T07:46:00.758Z,5.39
2022-11-13T07:47:02.766Z,5.28
2022-11-13T07:48:07.047Z,5.30
2022-11-13T07:49:09.917Z,5.32
2022-11-13T07:50:16.448Z,5.27
2022-11-13T07:51:21.529Z,5.25
2022-11-13T07:52:23.411Z,4.93
2022-11-13T07:53:26.600Z,4.86
2022-11-13T07:54:28.526Z,5.09
2022-11-13T07:55:31.165Z,4.94
2022-11-13T07:56:34.282Z,5.09
2022-11-13T07:57:36.221Z,5.14
2022-11-13T07:58:39.058Z,5.19
2022-11-13T07:59:40.837Z,5.26
2022-11-13T08:00:42.917Z,5.32
2022-11-13T08:01:50.719Z,5.39
2022-11-13T08:02:52.751Z,5.33
2022-11-13T08:03:56.089Z,5.35
2022-11-13T08:04:58.566Z,5.34
2022-11-13T08:06:06.373Z,5.34
2022-11-13T08:07:10.831Z,5.27
2022-11-13T08:08:14.269Z,5.39
2022-11-13T08:09:17.058Z,5.23
2022-11-13T08:10:21.665Z,5.37
2022-11-13T08:11:25.131Z,5.52
2022-11-13T08:12:27.926Z,5.44
2022-11-13T08:13:34.343Z,5.64
2022-11-13T08:14:36.639Z,5.69
2022-11-13T08:15:38.671Z,5.69
2022-11-13T08:16:40.772Z,5.75
2022-11-13T08:17:42.652Z,5.76
2022-11-13T08:18:44.452Z,5.84
2022-11-13T08:19:46.106Z,5.83
2022-11-13T08:20:48.763Z,5.93
2022-11-13T08:21:50.796Z,5.84
2022-11-13T08:22:53.210Z,5.93
2022-11-13T08:23:56.668Z,5.86
2022-11-13T08:24:58.649Z,5.86
2022-11-13T08:26:06.570Z,5.91
2022-11-13T08:27:11.023Z,5.96
2022-11-13T08:28:14.537Z,5.98
2022-11-13T08:29:17.821Z,6.05
2022-11-13T08:30:20.619Z,6.00
2022-11-13T08:31:22.242Z,6.04
2022-11-13T08:32:25.004Z,6.11
2022-11-13T08:33:29.130Z,6.12
2022-11-13T08:34:31.347Z,6.15
2022-11-13T08:35:33.864Z,6.15
2022-11-13T08:36:38.390Z,6.15
2022-11-13T08:37:40.375Z,6.09
2022-11-13T08:38:43.051Z,6.12
2022-11-13T08:39:45.005Z,6.19
2022-11-13T08:40:46.647Z,6.21
2022-11-13T08:41:50.024Z,6.23
2022-11-13T08:42:52.629Z,6.27
2022-11-13T08:43:55.672Z,6.30
2022-11-13T08:44:59.378Z,6.29
2022-11-13T08:46:02.079Z,6.10
2022-11-13T08:47:04.061Z,6.25
2022-11-13T08:48:06.697Z,6.29
2022-11-13T08:49:11.530Z,6.25
2022-11-13T08:50:13.654Z,6.30
2022-11-13T08:51:15.641Z,6.35
2022-11-13T08:52:17.342Z,6.29
2022-11-13T08:53:20.735Z,6.32
2022-11-13T08:54:23.881Z,6.43
2022-11-13T08:55:26.046Z,6.47
2022-11-13T08:56:30.231Z,6.45
2022-11-13T08:57:33.320Z,6.55
2022-11-13T08:58:35.634Z,6.57
2022-11-13T08:59:37.236Z,6.44
2022-11-13T09:00:38.801Z,6.52
2022-11-13T09:01:40.614Z,6.67
2022-11-13T09:02:43.583Z,6.68
2022-11-13T09:03:46.562Z,6.46
2022-11-13T09:04:49.585Z,6.67
2022-11-13T09:05:51.231Z,6.79
2022-11-13T09:06:53.110Z,6.74
2022-11-13T09:07:59.633Z,6.90
2022-11-13T09:09:01.907Z,6.93
2022-11-13T09:10:04.801Z,7.02
2022-11-13T09:11:06.957Z,7.01
2022-11-13T09:12:08.552Z,7.09
2022-11-13T09:13:12.578Z,7.05
2022-11-13T09:14:14.460Z,7.19
2022-11-13T09:15:20.306Z,7.14
2022-11-13T09:16:26.457Z,7.18
2022-11-13T09:17:28.431Z,7.04
2022-11-13T09:18:30.661Z,7.08
2022-11-13T09:19:32.799Z,7.03
2022-11-13T09:20:38.458Z,6.57
2022-11-13T09:21:40.670Z,6.48
2022-11-13T09:22:42.701Z,6.56
2022-11-13T09:23:47.616Z,6.43
2022-11-13T09:24:50.089Z,6.57
2022-11-13T09:25:53.091Z,6.40
2022-11-13T09:26:54.865Z,6.31
2022-11-13T09:28:01.853Z,6.29
2022-11-13T09:29:04.199Z,6.36
2022-11-13T09:30:07.123Z,6.41
2022-11-13T09:31:09.522Z,6.75
2022-11-13T09:32:11.272Z,6.98
2022-11-13T09:33:17.272Z,7.04
2022-11-13T09:34:18.973Z,7.14
2022-11-13T09:35:34.749Z,7.20
2022-11-13T09:36:37.292Z,7.09
2022-11-13T09:37:38.931Z,7.00
2022-11-13T09:38:41.570Z,7.00
2022-11-13T09:39:43.731Z,6.99
2022-11-13T09:40:55.053Z,7.12
2022-11-13T09:42:13.857Z,7.23
2022-11-13T09:43:29.911Z,7.25
2022-11-13T09:44:39.622Z,7.34
2022-11-13T09:45:43.302Z,7.44
2022-11-13T09:46:54.791Z,7.51
2022-11-13T09:48:07.201Z,7.50
2022-11-13T09:49:09.092Z,7.72
2022-11-13T09:50:22.441Z,7.46
2022-11-13T09:51:33.734Z,7.39
2022-11-13T09:52:41.972Z,7.34
2022-11-13T09:53:46.499Z,7.57
2022-11-13T09:54:51.948Z,7.62
2022-11-13T09:56:16.438Z,7.66
2022-11-13T09:57:46.887Z,7.78
2022-11-13T09:58:53.641Z,7.68
2022-11-13T10:00:04.893Z,7.86
2022-11-13T10:01:22.070Z,7.65
2022-11-13T10:02:46.584Z,8.20
2022-11-13T10:04:02.396Z,8.37
2022-11-13T10:05:32.104Z,8.36
2022-11-13T10:06:41.161Z,8.42
2022-11-13T10:08:01.420Z,8.19
2022-11-13T10:09:26.327Z,7.75
2022-11-13T10:11:02.403Z,7.74
2022-11-13T10:12:10.235Z,7.83
2022-11-13T10:13:28.290Z,7.95
2022-11-13T10:14:34.362Z,7.89
2022-11-13T10:15:38.681Z,8.05
2022-11-13T10:16:49.645Z,7.67
2022-11-13T10:18:02.774Z,8.16
2022-11-13T10:19:19.666Z,8.29
2022-11-13T10:20:33.033Z,8.14
2022-11-13T10:21:44.337Z,8.36
2022-11-13T10:22:55.525Z,8.40
2022-11-13T10:23:58.370Z,8.55
2022-11-13T10:25:17.163Z,8.65
2022-11-13T10:26:23.202Z,8.65
2022-11-13T10:27:26.168Z,8.70
2022-11-13T10:29:54.537Z,8.84
2022-11-13T10:30:56.579Z,8.75
2022-11-13T10:31:59.397Z,8.17
2022-11-13T10:33:12.456Z,8.31
2022-11-13T10:34:15.591Z,8.39
2022-11-13T10:35:23.234Z,8.28
2022-11-13T10:36:44.464Z,8.33
2022-11-13T10:38:22.312Z,8.60
2022-11-13T10:39:24.465Z,8.78
2022-11-13T10:40:28.367Z,9.07
2022-11-13T10:41:30.721Z,8.72
2022-11-13T10:42:41.594Z,8.90
2022-11-13T10:44:21.364Z,8.71
2022-11-13T10:45:28.187Z,8.90
2022-11-13T10:46:33.036Z,9.51
2022-11-13T10:48:03.312Z,10.88
2022-11-13T10:49:33.997Z,13.56
2022-11-13T10:50:36.287Z,14.80
2022-11-13T10:51:39.865Z,15.96
2022-11-13T10:52:48.466Z,16.75
2022-11-13T10:53:53.713Z,16.68
2022-11-13T10:55:18.571Z,15.94
2022-11-13T10:56:25.467Z,16.33
2022-11-13T10:57:35.037Z,16.58
2022-11-13T10:58:37.062Z,16.26
2022-11-13T10:59:42.383Z,17.63
2022-11-13T11:00:49.167Z,18.21
2022-11-13T11:01:51.207Z,18.36
2022-11-13T11:02:52.916Z,18.75
2022-11-13T11:03:55.908Z,19.61
2022-11-13T11:05:21.599Z,19.79
2022-11-13T11:07:12.686Z,18.53
2022-11-13T11:07:58.449Z,17.36
2022-11-13T11:09:13.321Z,16.24
2022-11-13T11:10:33.511Z,16.14
2022-11-13T11:11:54.241Z,16.18
2022-11-13T11:13:01.451Z,15.36
2022-11-13T11:14:22.927Z,13.68
2022-11-13T11:15:36.896Z,12.49
2022-11-13T11:16:40.781Z,12.05
2022-11-13T11:17:58.461Z,12.06
2022-11-13T11:19:04.775Z,12.67
2022-11-13T11:20:22.321Z,13.65
2022-11-13T11:21:32.706Z,13.95
2022-11-13T11:22:38.169Z,15.09
2022-11-13T11:23:49.584Z,16.56
2022-11-13T11:25:00.858Z,17.62
2022-11-13T11:26:10.000Z,17.60
2022-11-13T11:27:19.168Z,18.33
2022-11-13T11:28:36.273Z,19.30
2022-11-13T11:29:43.936Z,19.97
2022-11-13T11:31:05.813Z,20.99
2022-11-13T11:32:17.785Z,21.45
2022-11-13T11:33:54.858Z,19.77
2022-11-13T11:35:02.562Z,18.28
2022-11-13T11:36:25.651Z,17.74
2022-11-13T11:37:44.367Z,18.21
2022-11-13T11:39:01.624Z,19.35
2022-11-13T11:40:08.175Z,19.70
2022-11-13T11:41:16.651Z,19.90
2022-11-13T11:42:29.044Z,18.39
2022-11-13T11:43:42.897Z,19.38
2022-11-13T11:44:59.794Z,18.72
2022-11-13T11:46:02.914Z,17.32
2022-11-13T11:47:13.768Z,16.66
2022-11-13T11:48:18.735Z,16.72
2022-11-13T11:49:22.838Z,17.75
2022-11-13T11:50:55.638Z,18.65
2022-11-13T11:52:18.242Z,19.41
2022-11-13T11:53:41.843Z,19.89
2022-11-13T11:55:08.160Z,20.66
2022-11-13T11:56:20.520Z,21.66
2022-11-13T11:57:41.073Z,22.08
2022-11-13T11:59:04.616Z,22.98
2022-11-13T12:00:14.083Z,22.76
2022-11-13T12:01:52.919Z,22.81
2022-11-13T12:03:20.430Z,23.46
2022-11-13T12:04:56.558Z,22.37
2022-11-13T12:06:01.199Z,21.35
2022-11-13T12:07:24.529Z,20.33
2022-11-13T12:08:44.990Z,19.51
2022-11-13T12:10:15.237Z,20.69
2022-11-13T12:11:34.524Z,21.97
2022-11-13T12:13:05.066Z,22.09
2022-11-13T12:14:23.158Z,20.78
2022-11-13T12:15:28.726Z,21.23
2022-11-13T12:16:48.683Z,22.30
2022-11-13T12:18:09.895Z,22.89
2022-11-13T12:19:22.939Z,22.04
2022-11-13T12:20:26.240Z,20.23
2022-11-13T12:21:48.365Z,19.04
2022-11-13T12:23:05.269Z,17.97
2022-11-13T12:24:47.013Z,19.26
2022-11-13T12:26:01.664Z,19.20
2022-11-13T12:27:28.667Z,18.34
2022-11-13T12:28:45.327Z,19.28
2022-11-13T12:30:26.854Z,19.57
2022-11-13T12:32:16.035Z,19.97
2022-11-13T12:33:37.412Z,19.19
2022-11-13T12:34:51.202Z,19.22
2022-11-13T12:35:54.201Z,18.69
2022-11-13T12:36:57.997Z,18.13
2022-11-13T12:38:10.011Z,16.81
2022-11-13T12:39:29.298Z,17.45
2022-11-13T12:40:49.472Z,18.48
2022-11-13T12:42:11.615Z,18.54
2022-11-13T12:43:39.659Z,18.20
2022-11-13T12:44:53.115Z,19.76
2022-11-13T12:45:59.904Z,21.07
2022-11-13T12:47:01.894Z,20.79
2022-11-13T12:48:34.081Z,20.27
2022-11-13T12:49:37.125Z,18.96
2022-11-13T12:50:39.664Z,19.21
2022-11-13T12:51:53.278Z,19.44
2022-11-13T12:53:00.157Z,19.99
2022-11-13T12:54:01.941Z,20.50
2022-11-13T12:55:24.147Z,20.34
2022-11-13T12:56:29.133Z,19.38
2022-11-13T12:57:32.485Z,18.85
2022-11-13T12:58:34.240Z,18.79
2022-11-13T12:59:39.752Z,18.47
2022-11-13T13:01:12.354Z,19.24
2022-11-13T13:02:14.093Z,18.10
2022-11-13T13:03:30.926Z,19.28
2022-11-13T13:04:36.134Z,20.27
2022-11-13T13:05:59.743Z,21.39
2022-11-13T13:07:35.905Z,21.86
2022-11-13T13:09:14.775Z,21.60
2022-11-13T13:10:44.525Z,20.45
2022-11-13T13:12:07.541Z,19.52
2022-11-13T13:13:24.512Z,18.92
2022-11-13T13:14:44.941Z,18.61
2022-11-13T13:15:55.665Z,18.66
2022-11-13T13:17:21.485Z,19.44
2022-11-13T13:18:26.518Z,20.12
2022-11-13T13:19:34.220Z,19.65
2022-11-13T13:20:47.070Z,19.77
2022-11-13T13:21:49.038Z,19.24
2022-11-13T13:23:03.809Z,18.24
2022-11-13T13:24:26.866Z,18.72
2022-11-13T13:25:34.741Z,18.18
2022-11-13T13:26:45.529Z,18.50
2022-11-13T13:28:19.576Z,18.39
2022-11-13T13:29:26.399Z,18.50
2022-11-13T13:30:31.521Z,18.68
2022-11-13T13:32:00.649Z,18.20
2022-11-13T13:33:05.066Z,18.42
2022-11-13T13:34:35.014Z,19.67
2022-11-13T13:35:51.718Z,20.83
2022-11-13T13:37:04.632Z,21.36
2022-11-13T13:38:29.793Z,20.69
2022-11-13T13:39:48.279Z,20.33
2022-11-13T13:41:33.967Z,19.61
2022-11-13T13:43:08.758Z,19.78
2022-11-13T13:44:38.088Z,18.31
2022-11-13T13:45:47.242Z,18.56
2022-11-13T13:46:50.000Z,18.36
2022-11-13T13:47:53.624Z,18.67
2022-11-13T13:49:02.237Z,19.38
2022-11-13T13:50:06.825Z,19.35
2022-11-13T13:51:41.863Z,20.26
2022-11-13T13:52:45.527Z,20.76
2022-11-13T13:53:49.743Z,21.02
2022-11-13T13:54:52.146Z,19.94
2022-11-13T13:55:56.548Z,20.16
2022-11-13T13:56:58.842Z,20.97
2022-11-13T13:58:05.739Z,21.46
2022-11-13T13:59:18.747Z,19.77
2022-11-13T14:00:21.070Z,19.09
2022-11-13T14:01:36.052Z,18.24
2022-11-13T14:02:51.272Z,18.22
2022-11-13T14:04:05.776Z,18.96
2022-11-13T14:05:28.918Z,18.60
2022-11-13T14:06:30.971Z,18.27
2022-11-13T14:07:36.289Z,18.97
2022-11-13T14:08:38.589Z,19.16
2022-11-13T14:09:40.931Z,19.41
2022-11-13T14:10:42.798Z,19.38
2022-11-13T14:11:44.520Z,19.41
2022-11-13T14:12:51.778Z,19.19
2022-11-13T14:13:53.522Z,18.70
2022-11-13T14:14:55.155Z,17.68
2022-11-13T14:16:02.172Z,17.23
2022-11-13T14:17:04.525Z,16.73
2022-11-13T14:18:09.492Z,16.37
2022-11-13T14:19:12.278Z,16.20
2022-11-13T14:20:14.390Z,16.51
2022-11-13T14:21:22.367Z,15.80
2022-11-13T14:22:24.149Z,15.71
2022-11-13T14:23:32.418Z,15.49
2022-11-13T14:24:52.268Z,15.30
2022-11-13T14:25:55.888Z,15.07
2022-11-13T14:26:58.695Z,14.84
2022-11-13T14:28:01.746Z,14.40
2022-11-13T14:29:03.791Z,13.80
2022-11-13T14:30:20.494Z,13.58
2022-11-13T14:31:31.120Z,13.00
2022-11-13T14:32:42.982Z,12.66
2022-11-13T14:33:50.615Z,11.87
2022-11-13T14:34:57.290Z,11.74
2022-11-13T14:36:00.011Z,11.54
2022-11-13T14:37:30.705Z,11.21
2022-11-13T14:38:36.572Z,11.03
2022-11-13T14:39:38.884Z,10.84
2022-11-13T14:40:46.528Z,10.92